Terminal Aerodrome Forecast
Issued by NWS

Home | Current Version | Previous Version | Text Only | Print | Product List | Glossary On
Versions: 1 2 3 4 5 6 7 8 9 10 11 12 13 14 15 16 17 18 19 20
000
FTUS43 KIND 301720
TAFBMG
TAF
KBMG 301720Z 3018/0118 VRB03KT P6SM -SHRA VCTS SCT015CB SCT020CB
      BKN060
     FM010000 00000KT P6SM VCSH BKN070
     FM010300 VRB03KT P6SM BKN080 PROB30 0103/0107 4SM -SHRA BR
      OVC040
     FM010700 00000KT 5SM BR BKN060 PROB30 0107/0109 2SM -SHRA BR
      OVC025
     FM010900 00000KT 2SM BR BKN015 PROB30 0109/0110 1SM -SHRA BR
      OVC007
     FM011000 00000KT 1SM BR BKN010 PROB30 0110/0112 3/4SM -SHRA BR
      OVC003
     FM011500 VRB03KT 3SM -SHRA BR BKN010=

USA.gov is the U.S. government's official web portal to all federal, state and local government web resources and services.